Stewartville, Minnesota
Current Conditions -  °F | °C
As of 2:08 AM on Thursday 18 Dec 2014 (Local Time) from KRST Reporting Station
Scattered Clouds Scattered Clouds  
Wind Chill: 15°   Ceiling: Unl
Heat Index: 15°   Visibility: 9mi
Dew Point: 10°   Wind: 0mph
Humidity: 80%   Direction: NA
Pressure: 30.28"   Gusts: NA
Location:  43.86°N, 92.49°W
Report Text: KRST 180808Z 00000KT 9SM SCT011 M09/M12 A3028 RMK AO2 T10941122
Loading
Personal Weather Stations






























Interactive Weather Map New forecast layout! Learn more

10-Day Weather Forecast

Advertisements
Track Severe Weather on mobile